sensor_id;sensor_type;location;lat;lon;timestamp;P1;durP1;ratioP1;P2;durP2;ratioP2
64208;SDS011;50527;52.414;13.226;2023-04-15T00:00:13;9.00;;;3.83;;
64208;SDS011;50527;52.414;13.226;2023-04-15T00:02:40;9.50;;;3.72;;
64208;SDS011;50527;52.414;13.226;2023-04-15T00:05:05;8.00;;;3.58;;
64208;SDS011;50527;52.414;13.226;2023-04-15T00:07:31;8.02;;;3.80;;
64208;SDS011;50527;52.414;13.226;2023-04-15T00:09:57;8.68;;;4.40;;
64208;SDS011;50527;52.414;13.226;2023-04-15T00:12:23;7.65;;;3.65;;
64208;SDS011;50527;52.414;13.226;2023-04-15T00:14:50;10.15;;;4.13;;
64208;SDS011;50527;52.414;13.226;2023-04-15T00:17:16;7.22;;;3.80;;
64208;SDS011;50527;52.414;13.226;2023-04-15T00:19:42;8.98;;;3.85;;
64208;SDS011;50527;52.414;13.226;2023-04-15T00:22:09;11.18;;;4.68;;
64208;SDS011;50527;52.414;13.226;2023-04-15T00:24:36;8.73;;;3.78;;
64208;SDS011;50527;52.414;13.226;2023-04-15T00:27:01;12.43;;;4.35;;
64208;SDS011;50527;52.414;13.226;2023-04-15T00:29:27;9.63;;;4.22;;
64208;SDS011;50527;52.414;13.226;2023-04-15T00:31:53;9.68;;;4.25;;
64208;SDS011;50527;52.414;13.226;2023-04-15T00:34:19;12.85;;;4.70;;
64208;SDS011;50527;52.414;13.226;2023-04-15T00:36:45;11.57;;;5.15;;
64208;SDS011;50527;52.414;13.226;2023-04-15T00:39:10;10.55;;;4.70;;
64208;SDS011;50527;52.414;13.226;2023-04-15T00:41:36;12.77;;;5.38;;
64208;SDS011;50527;52.414;13.226;2023-04-15T00:44:05;14.18;;;5.68;;
64208;SDS011;50527;52.414;13.226;2023-04-15T00:46:31;12.75;;;5.78;;
64208;SDS011;50527;52.414;13.226;2023-04-15T00:48:59;13.65;;;5.82;;
64208;SDS011;50527;52.414;13.226;2023-04-15T00:51:25;14.15;;;5.63;;
64208;SDS011;50527;52.414;13.226;2023-04-15T00:53:51;11.55;;;5.57;;
64208;SDS011;50527;52.414;13.226;2023-04-15T00:56:16;11.88;;;5.53;;
64208;SDS011;50527;52.414;13.226;2023-04-15T00:58:45;13.32;;;5.85;;
64208;SDS011;50527;52.414;13.226;2023-04-15T01:01:12;16.92;;;5.70;;
64208;SDS011;50527;52.414;13.226;2023-04-15T01:03:38;13.00;;;5.65;;
64208;SDS011;50527;52.414;13.226;2023-04-15T01:06:03;13.23;;;5.57;;
64208;SDS011;50527;52.414;13.226;2023-04-15T01:08:29;15.10;;;6.30;;
64208;SDS011;50527;52.414;13.226;2023-04-15T01:10:55;13.27;;;5.93;;
64208;SDS011;50527;52.414;13.226;2023-04-15T01:13:23;12.80;;;5.72;;
64208;SDS011;50527;52.414;13.226;2023-04-15T01:15:49;19.73;;;5.72;;
64208;SDS011;50527;52.414;13.226;2023-04-15T01:18:16;14.80;;;5.75;;
64208;SDS011;50527;52.414;13.226;2023-04-15T01:20:42;11.18;;;5.00;;
64208;SDS011;50527;52.414;13.226;2023-04-15T01:23:08;11.13;;;5.43;;
64208;SDS011;50527;52.414;13.226;2023-04-15T01:25:34;11.75;;;5.80;;
64208;SDS011;50527;52.414;13.226;2023-04-15T01:27:59;12.95;;;5.75;;
64208;SDS011;50527;52.414;13.226;2023-04-15T01:30:26;16.13;;;5.50;;
64208;SDS011;50527;52.414;13.226;2023-04-15T01:32:52;15.88;;;6.30;;
64208;SDS011;50527;52.414;13.226;2023-04-15T01:35:18;14.65;;;5.85;;
64208;SDS011;50527;52.414;13.226;2023-04-15T01:37:43;14.90;;;5.93;;
64208;SDS011;50527;52.414;13.226;2023-04-15T01:40:10;15.35;;;5.90;;
64208;SDS011;50527;52.414;13.226;2023-04-15T01:42:36;12.40;;;5.78;;
64208;SDS011;50527;52.414;13.226;2023-04-15T01:45:02;13.90;;;5.88;;
64208;SDS011;50527;52.414;13.226;2023-04-15T01:47:28;12.40;;;5.63;;
64208;SDS011;50527;52.414;13.226;2023-04-15T01:49:54;14.85;;;6.05;;
64208;SDS011;50527;52.414;13.226;2023-04-15T01:52:20;12.75;;;5.57;;
64208;SDS011;50527;52.414;13.226;2023-04-15T01:54:45;13.05;;;5.60;;
64208;SDS011;50527;52.414;13.226;2023-04-15T01:57:11;12.23;;;5.43;;
64208;SDS011;50527;52.414;13.226;2023-04-15T01:59:36;13.55;;;5.78;;
64208;SDS011;50527;52.414;13.226;2023-04-15T02:02:02;13.48;;;5.97;;
64208;SDS011;50527;52.414;13.226;2023-04-15T02:04:28;13.05;;;5.45;;
64208;SDS011;50527;52.414;13.226;2023-04-15T02:06:53;15.38;;;6.10;;
64208;SDS011;50527;52.414;13.226;2023-04-15T02:09:19;13.40;;;6.18;;
64208;SDS011;50527;52.414;13.226;2023-04-15T02:11:45;15.45;;;5.75;;
64208;SDS011;50527;52.414;13.226;2023-04-15T02:14:10;16.25;;;6.32;;
64208;SDS011;50527;52.414;13.226;2023-04-15T02:16:36;16.88;;;6.15;;
64208;SDS011;50527;52.414;13.226;2023-04-15T02:19:02;15.88;;;6.18;;
64208;SDS011;50527;52.414;13.226;2023-04-15T02:21:28;14.13;;;6.68;;
64208;SDS011;50527;52.414;13.226;2023-04-15T02:23:54;16.10;;;6.35;;
64208;SDS011;50527;52.414;13.226;2023-04-15T02:26:20;13.38;;;6.15;;
64208;SDS011;50527;52.414;13.226;2023-04-15T02:28:46;17.40;;;6.10;;
64208;SDS011;50527;52.414;13.226;2023-04-15T02:31:13;13.43;;;6.28;;
64208;SDS011;50527;52.414;13.226;2023-04-15T02:33:38;14.25;;;6.20;;
64208;SDS011;50527;52.414;13.226;2023-04-15T02:36:04;13.95;;;6.20;;
64208;SDS011;50527;52.414;13.226;2023-04-15T02:38:31;12.75;;;5.70;;
64208;SDS011;50527;52.414;13.226;2023-04-15T02:40:56;19.75;;;6.50;;
64208;SDS011;50527;52.414;13.226;2023-04-15T02:43:22;15.68;;;6.32;;
64208;SDS011;50527;52.414;13.226;2023-04-15T02:45:48;13.30;;;5.80;;
64208;SDS011;50527;52.414;13.226;2023-04-15T02:48:15;15.18;;;6.55;;
64208;SDS011;50527;52.414;13.226;2023-04-15T02:50:42;24.90;;;6.82;;
64208;SDS011;50527;52.414;13.226;2023-04-15T02:53:08;17.67;;;6.72;;
64208;SDS011;50527;52.414;13.226;2023-04-15T02:55:33;14.10;;;5.72;;
64208;SDS011;50527;52.414;13.226;2023-04-15T02:57:59;15.13;;;6.28;;
64208;SDS011;50527;52.414;13.226;2023-04-15T03:00:25;16.73;;;6.35;;
64208;SDS011;50527;52.414;13.226;2023-04-15T03:02:51;15.80;;;6.32;;
64208;SDS011;50527;52.414;13.226;2023-04-15T03:05:21;18.05;;;6.97;;
64208;SDS011;50527;52.414;13.226;2023-04-15T03:07:50;19.25;;;7.00;;
64208;SDS011;50527;52.414;13.226;2023-04-15T03:10:16;18.35;;;6.60;;
64208;SDS011;50527;52.414;13.226;2023-04-15T03:12:41;13.27;;;5.85;;
64208;SDS011;50527;52.414;13.226;2023-04-15T03:15:07;13.95;;;6.10;;
64208;SDS011;50527;52.414;13.226;2023-04-15T03:17:33;15.35;;;6.90;;
64208;SDS011;50527;52.414;13.226;2023-04-15T03:20:00;14.25;;;6.22;;
64208;SDS011;50527;52.414;13.226;2023-04-15T03:22:27;18.75;;;6.88;;
64208;SDS011;50527;52.414;13.226;2023-04-15T03:24:52;14.23;;;6.82;;
64208;SDS011;50527;52.414;13.226;2023-04-15T03:27:18;15.77;;;5.85;;
64208;SDS011;50527;52.414;13.226;2023-04-15T03:29:43;19.05;;;6.65;;
64208;SDS011;50527;52.414;13.226;2023-04-15T03:32:09;15.15;;;6.20;;
64208;SDS011;50527;52.414;13.226;2023-04-15T03:34:35;16.65;;;6.18;;
64208;SDS011;50527;52.414;13.226;2023-04-15T03:37:00;17.58;;;6.32;;
64208;SDS011;50527;52.414;13.226;2023-04-15T03:39:26;17.10;;;7.13;;
64208;SDS011;50527;52.414;13.226;2023-04-15T03:41:51;16.73;;;6.05;;
64208;SDS011;50527;52.414;13.226;2023-04-15T03:44:17;20.67;;;7.15;;
64208;SDS011;50527;52.414;13.226;2023-04-15T03:46:42;16.27;;;6.38;;
64208;SDS011;50527;52.414;13.226;2023-04-15T03:49:08;15.20;;;6.72;;
64208;SDS011;50527;52.414;13.226;2023-04-15T03:51:33;16.25;;;6.18;;
64208;SDS011;50527;52.414;13.226;2023-04-15T03:53:59;16.83;;;6.38;;
64208;SDS011;50527;52.414;13.226;2023-04-15T03:56:26;16.10;;;6.47;;
64208;SDS011;50527;52.414;13.226;2023-04-15T03:58:51;18.42;;;6.53;;
64208;SDS011;50527;52.414;13.226;2023-04-15T04:01:17;13.98;;;6.22;;
64208;SDS011;50527;52.414;13.226;2023-04-15T04:03:43;15.00;;;6.53;;
64208;SDS011;50527;52.414;13.226;2023-04-15T04:06:08;14.57;;;6.63;;
64208;SDS011;50527;52.414;13.226;2023-04-15T04:08:36;16.02;;;5.90;;
64208;SDS011;50527;52.414;13.226;2023-04-15T04:11:02;15.68;;;6.72;;
64208;SDS011;50527;52.414;13.226;2023-04-15T04:13:28;15.68;;;6.88;;
64208;SDS011;50527;52.414;13.226;2023-04-15T04:15:53;13.00;;;6.05;;
64208;SDS011;50527;52.414;13.226;2023-04-15T04:18:19;16.70;;;6.28;;
64208;SDS011;50527;52.414;13.226;2023-04-15T04:20:45;19.40;;;6.50;;
64208;SDS011;50527;52.414;13.226;2023-04-15T04:23:10;17.92;;;6.45;;
64208;SDS011;50527;52.414;13.226;2023-04-15T04:25:36;16.27;;;6.40;;
64208;SDS011;50527;52.414;13.226;2023-04-15T04:28:02;15.45;;;6.35;;
64208;SDS011;50527;52.414;13.226;2023-04-15T04:30:28;14.65;;;6.03;;
64208;SDS011;50527;52.414;13.226;2023-04-15T04:32:54;18.60;;;6.60;;
64208;SDS011;50527;52.414;13.226;2023-04-15T04:35:19;19.95;;;6.40;;
64208;SDS011;50527;52.414;13.226;2023-04-15T04:37:45;14.85;;;6.25;;
64208;SDS011;50527;52.414;13.226;2023-04-15T04:40:11;15.57;;;6.22;;
64208;SDS011;50527;52.414;13.226;2023-04-15T04:42:37;16.58;;;5.97;;
64208;SDS011;50527;52.414;13.226;2023-04-15T04:45:03;15.38;;;6.10;;
64208;SDS011;50527;52.414;13.226;2023-04-15T04:47:29;13.52;;;5.97;;
64208;SDS011;50527;52.414;13.226;2023-04-15T04:49:55;14.88;;;5.90;;
64208;SDS011;50527;52.414;13.226;2023-04-15T04:52:20;12.48;;;5.20;;
64208;SDS011;50527;52.414;13.226;2023-04-15T04:54:46;15.57;;;5.88;;
64208;SDS011;50527;52.414;13.226;2023-04-15T04:57:11;13.60;;;5.85;;
64208;SDS011;50527;52.414;13.226;2023-04-15T04:59:37;11.95;;;5.57;;
64208;SDS011;50527;52.414;13.226;2023-04-15T05:02:03;15.57;;;5.90;;
64208;SDS011;50527;52.414;13.226;2023-04-15T05:04:29;15.32;;;5.70;;
64208;SDS011;50527;52.414;13.226;2023-04-15T05:06:55;16.38;;;5.88;;
64208;SDS011;50527;52.414;13.226;2023-04-15T05:09:22;13.95;;;6.00;;
64208;SDS011;50527;52.414;13.226;2023-04-15T05:11:47;12.25;;;5.57;;
64208;SDS011;50527;52.414;13.226;2023-04-15T05:14:13;12.15;;;5.40;;
64208;SDS011;50527;52.414;13.226;2023-04-15T05:16:38;14.43;;;5.38;;
64208;SDS011;50527;52.414;13.226;2023-04-15T05:19:04;16.90;;;5.45;;
64208;SDS011;50527;52.414;13.226;2023-04-15T05:21:29;12.35;;;5.03;;
64208;SDS011;50527;52.414;13.226;2023-04-15T05:23:55;16.73;;;5.38;;
64208;SDS011;50527;52.414;13.226;2023-04-15T05:26:21;12.00;;;5.10;;
64208;SDS011;50527;52.414;13.226;2023-04-15T05:28:48;13.52;;;5.07;;
64208;SDS011;50527;52.414;13.226;2023-04-15T05:31:14;12.38;;;5.38;;
64208;SDS011;50527;52.414;13.226;2023-04-15T05:33:40;15.43;;;5.32;;
64208;SDS011;50527;52.414;13.226;2023-04-15T05:36:05;13.13;;;5.03;;
64208;SDS011;50527;52.414;13.226;2023-04-15T05:38:31;14.82;;;5.25;;
64208;SDS011;50527;52.414;13.226;2023-04-15T05:40:57;11.32;;;4.93;;
64208;SDS011;50527;52.414;13.226;2023-04-15T05:43:22;13.25;;;4.88;;
64208;SDS011;50527;52.414;13.226;2023-04-15T05:45:48;12.90;;;5.10;;
64208;SDS011;50527;52.414;13.226;2023-04-15T05:48:13;10.10;;;4.28;;
64208;SDS011;50527;52.414;13.226;2023-04-15T05:50:40;12.68;;;5.25;;
64208;SDS011;50527;52.414;13.226;2023-04-15T05:53:06;16.00;;;4.93;;
64208;SDS011;50527;52.414;13.226;2023-04-15T05:55:32;14.38;;;4.80;;
64208;SDS011;50527;52.414;13.226;2023-04-15T05:57:58;11.80;;;5.05;;
64208;SDS011;50527;52.414;13.226;2023-04-15T06:00:23;12.13;;;5.30;;
64208;SDS011;50527;52.414;13.226;2023-04-15T06:02:49;9.90;;;4.60;;
64208;SDS011;50527;52.414;13.226;2023-04-15T06:05:15;15.30;;;4.95;;
64208;SDS011;50527;52.414;13.226;2023-04-15T06:07:41;11.15;;;4.63;;
64208;SDS011;50527;52.414;13.226;2023-04-15T06:10:07;12.48;;;4.85;;
64208;SDS011;50527;52.414;13.226;2023-04-15T06:12:33;9.07;;;4.15;;
64208;SDS011;50527;52.414;13.226;2023-04-15T06:14:59;11.52;;;4.28;;
64208;SDS011;50527;52.414;13.226;2023-04-15T06:17:25;8.93;;;4.13;;
64208;SDS011;50527;52.414;13.226;2023-04-15T06:19:51;10.43;;;4.35;;
64208;SDS011;50527;52.414;13.226;2023-04-15T06:22:20;9.00;;;4.25;;
64208;SDS011;50527;52.414;13.226;2023-04-15T06:24:47;11.95;;;4.38;;
64208;SDS011;50527;52.414;13.226;2023-04-15T06:27:14;10.18;;;3.88;;
64208;SDS011;50527;52.414;13.226;2023-04-15T06:29:40;8.25;;;3.65;;
64208;SDS011;50527;52.414;13.226;2023-04-15T06:32:06;7.78;;;3.88;;
64208;SDS011;50527;52.414;13.226;2023-04-15T06:34:32;6.57;;;3.88;;
64208;SDS011;50527;52.414;13.226;2023-04-15T06:36:57;9.20;;;3.90;;
64208;SDS011;50527;52.414;13.226;2023-04-15T06:39:23;10.35;;;3.65;;
64208;SDS011;50527;52.414;13.226;2023-04-15T06:41:48;8.20;;;3.80;;
64208;SDS011;50527;52.414;13.226;2023-04-15T06:44:14;7.40;;;3.28;;
64208;SDS011;50527;52.414;13.226;2023-04-15T06:46:40;7.78;;;3.85;;
64208;SDS011;50527;52.414;13.226;2023-04-15T06:49:05;8.75;;;3.50;;
64208;SDS011;50527;52.414;13.226;2023-04-15T06:51:31;10.10;;;3.10;;
64208;SDS011;50527;52.414;13.226;2023-04-15T06:53:58;8.98;;;3.70;;
64208;SDS011;50527;52.414;13.226;2023-04-15T06:56:24;8.75;;;3.60;;
64208;SDS011;50527;52.414;13.226;2023-04-15T06:58:49;12.45;;;3.58;;
64208;SDS011;50527;52.414;13.226;2023-04-15T07:01:15;9.07;;;3.15;;
64208;SDS011;50527;52.414;13.226;2023-04-15T07:03:41;9.18;;;3.15;;
64208;SDS011;50527;52.414;13.226;2023-04-15T07:06:06;7.13;;;3.33;;
64208;SDS011;50527;52.414;13.226;2023-04-15T07:08:33;10.07;;;3.28;;
64208;SDS011;50527;52.414;13.226;2023-04-15T07:10:59;8.00;;;3.40;;
64208;SDS011;50527;52.414;13.226;2023-04-15T07:13:25;7.68;;;3.08;;
64208;SDS011;50527;52.414;13.226;2023-04-15T07:15:51;6.63;;;3.25;;
64208;SDS011;50527;52.414;13.226;2023-04-15T07:18:16;8.25;;;3.03;;
64208;SDS011;50527;52.414;13.226;2023-04-15T07:20:42;7.85;;;3.20;;
64208;SDS011;50527;52.414;13.226;2023-04-15T07:23:08;8.57;;;3.25;;
64208;SDS011;50527;52.414;13.226;2023-04-15T07:25:33;5.53;;;2.80;;
64208;SDS011;50527;52.414;13.226;2023-04-15T07:27:59;5.22;;;2.65;;
64208;SDS011;50527;52.414;13.226;2023-04-15T07:30:24;7.95;;;3.35;;
64208;SDS011;50527;52.414;13.226;2023-04-15T07:32:50;9.10;;;3.45;;
64208;SDS011;50527;52.414;13.226;2023-04-15T07:35:16;5.50;;;3.00;;
64208;SDS011;50527;52.414;13.226;2023-04-15T07:37:42;7.40;;;3.13;;
64208;SDS011;50527;52.414;13.226;2023-04-15T07:40:08;7.20;;;3.10;;
64208;SDS011;50527;52.414;13.226;2023-04-15T07:42:34;8.02;;;3.33;;
64208;SDS011;50527;52.414;13.226;2023-04-15T07:44:59;7.00;;;3.13;;
64208;SDS011;50527;52.414;13.226;2023-04-15T07:47:25;12.18;;;3.33;;
64208;SDS011;50527;52.414;13.226;2023-04-15T07:49:51;10.35;;;3.40;;
64208;SDS011;50527;52.414;13.226;2023-04-15T07:52:17;5.78;;;2.88;;
64208;SDS011;50527;52.414;13.226;2023-04-15T07:54:42;5.35;;;2.80;;
64208;SDS011;50527;52.414;13.226;2023-04-15T07:57:08;6.72;;;3.00;;
64208;SDS011;50527;52.414;13.226;2023-04-15T07:59:34;6.32;;;3.00;;
64208;SDS011;50527;52.414;13.226;2023-04-15T08:02:00;6.43;;;3.70;;
64208;SDS011;50527;52.414;13.226;2023-04-15T08:04:26;6.63;;;3.10;;
64208;SDS011;50527;52.414;13.226;2023-04-15T08:06:52;6.72;;;3.35;;
64208;SDS011;50527;52.414;13.226;2023-04-15T08:09:18;11.30;;;3.03;;
64208;SDS011;50527;52.414;13.226;2023-04-15T08:11:46;6.60;;;2.35;;
64208;SDS011;50527;52.414;13.226;2023-04-15T08:14:13;6.30;;;3.00;;
64208;SDS011;50527;52.414;13.226;2023-04-15T08:16:38;5.28;;;2.90;;
64208;SDS011;50527;52.414;13.226;2023-04-15T08:19:04;8.68;;;3.33;;
64208;SDS011;50527;52.414;13.226;2023-04-15T08:21:30;7.32;;;3.10;;
64208;SDS011;50527;52.414;13.226;2023-04-15T08:23:56;6.20;;;3.35;;
64208;SDS011;50527;52.414;13.226;2023-04-15T08:26:21;7.57;;;3.28;;
64208;SDS011;50527;52.414;13.226;2023-04-15T08:28:47;7.05;;;3.28;;
64208;SDS011;50527;52.414;13.226;2023-04-15T08:31:14;6.32;;;3.00;;
64208;SDS011;50527;52.414;13.226;2023-04-15T08:33:41;7.20;;;3.22;;
64208;SDS011;50527;52.414;13.226;2023-04-15T08:36:06;5.82;;;3.35;;
64208;SDS011;50527;52.414;13.226;2023-04-15T08:38:32;8.07;;;3.58;;
64208;SDS011;50527;52.414;13.226;2023-04-15T08:41:02;6.50;;;3.25;;
64208;SDS011;50527;52.414;13.226;2023-04-15T08:43:34;8.57;;;3.20;;
64208;SDS011;50527;52.414;13.226;2023-04-15T08:46:04;8.23;;;3.55;;
64208;SDS011;50527;52.414;13.226;2023-04-15T08:48:31;6.45;;;3.28;;
64208;SDS011;50527;52.414;13.226;2023-04-15T08:50:58;7.10;;;3.33;;
64208;SDS011;50527;52.414;13.226;2023-04-15T08:53:24;8.32;;;3.63;;
64208;SDS011;50527;52.414;13.226;2023-04-15T08:55:52;7.95;;;3.38;;
64208;SDS011;50527;52.414;13.226;2023-04-15T08:58:21;7.60;;;3.22;;
64208;SDS011;50527;52.414;13.226;2023-04-15T09:00:46;6.35;;;3.20;;
64208;SDS011;50527;52.414;13.226;2023-04-15T09:03:12;10.50;;;3.47;;
64208;SDS011;50527;52.414;13.226;2023-04-15T09:05:45;9.38;;;3.78;;
64208;SDS011;50527;52.414;13.226;2023-04-15T09:08:14;7.47;;;3.80;;
64208;SDS011;50527;52.414;13.226;2023-04-15T09:10:40;9.32;;;3.70;;
64208;SDS011;50527;52.414;13.226;2023-04-15T09:13:05;8.07;;;3.15;;
64208;SDS011;50527;52.414;13.226;2023-04-15T09:15:33;6.30;;;3.10;;
64208;SDS011;50527;52.414;13.226;2023-04-15T09:18:03;6.78;;;2.95;;
64208;SDS011;50527;52.414;13.226;2023-04-15T09:20:29;6.32;;;2.92;;
64208;SDS011;50527;52.414;13.226;2023-04-15T09:23:10;4.25;;;2.58;;
64208;SDS011;50527;52.414;13.226;2023-04-15T09:25:37;7.57;;;3.53;;
64208;SDS011;50527;52.414;13.226;2023-04-15T09:28:04;5.68;;;2.78;;
64208;SDS011;50527;52.414;13.226;2023-04-15T09:30:30;7.65;;;3.10;;
64208;SDS011;50527;52.414;13.226;2023-04-15T09:32:59;6.50;;;3.33;;
64208;SDS011;50527;52.414;13.226;2023-04-15T09:35:32;7.22;;;3.17;;
64208;SDS011;50527;52.414;13.226;2023-04-15T09:38:03;7.65;;;3.03;;
64208;SDS011;50527;52.414;13.226;2023-04-15T09:43:07;11.27;;;3.65;;
64208;SDS011;50527;52.414;13.226;2023-04-15T09:45:33;6.47;;;3.28;;
64208;SDS011;50527;52.414;13.226;2023-04-15T09:50:46;9.02;;;3.40;;
64208;SDS011;50527;52.414;13.226;2023-04-15T09:53:16;7.05;;;3.58;;
64208;SDS011;50527;52.414;13.226;2023-04-15T09:55:53;7.40;;;3.47;;
64208;SDS011;50527;52.414;13.226;2023-04-15T09:58:29;6.75;;;3.60;;
64208;SDS011;50527;52.414;13.226;2023-04-15T10:00:56;7.18;;;3.45;;
64208;SDS011;50527;52.414;13.226;2023-04-15T10:03:23;7.65;;;3.70;;
64208;SDS011;50527;52.414;13.226;2023-04-15T10:05:54;6.43;;;3.42;;
64208;SDS011;50527;52.414;13.226;2023-04-15T10:08:22;6.63;;;3.40;;
64208;SDS011;50527;52.414;13.226;2023-04-15T10:10:50;7.07;;;3.90;;
64208;SDS011;50527;52.414;13.226;2023-04-15T10:13:26;7.22;;;3.58;;
64208;SDS011;50527;52.414;13.226;2023-04-15T10:15:57;7.80;;;4.45;;
64208;SDS011;50527;52.414;13.226;2023-04-15T10:18:24;6.35;;;3.50;;
64208;SDS011;50527;52.414;13.226;2023-04-15T10:20:51;6.25;;;3.60;;
64208;SDS011;50527;52.414;13.226;2023-04-15T10:23:18;7.93;;;3.40;;
64208;SDS011;50527;52.414;13.226;2023-04-15T10:25:45;9.00;;;3.13;;
64208;SDS011;50527;52.414;13.226;2023-04-15T10:28:11;11.45;;;3.45;;
64208;SDS011;50527;52.414;13.226;2023-04-15T10:30:38;9.02;;;3.92;;
64208;SDS011;50527;52.414;13.226;2023-04-15T10:33:04;5.15;;;3.10;;
64208;SDS011;50527;52.414;13.226;2023-04-15T10:35:30;7.00;;;3.53;;
64208;SDS011;50527;52.414;13.226;2023-04-15T10:37:58;10.98;;;5.18;;
64208;SDS011;50527;52.414;13.226;2023-04-15T10:40:24;7.97;;;3.83;;
64208;SDS011;50527;52.414;13.226;2023-04-15T10:42:59;8.45;;;3.20;;
64208;SDS011;50527;52.414;13.226;2023-04-15T10:45:35;6.80;;;3.40;;
64208;SDS011;50527;52.414;13.226;2023-04-15T10:48:02;7.82;;;3.20;;
64208;SDS011;50527;52.414;13.226;2023-04-15T10:50:31;6.18;;;3.00;;
64208;SDS011;50527;52.414;13.226;2023-04-15T10:52:57;5.10;;;2.83;;
64208;SDS011;50527;52.414;13.226;2023-04-15T10:55:26;6.90;;;3.25;;
64208;SDS011;50527;52.414;13.226;2023-04-15T10:57:57;6.78;;;3.15;;
64208;SDS011;50527;52.414;13.226;2023-04-15T11:00:25;6.07;;;3.17;;
64208;SDS011;50527;52.414;13.226;2023-04-15T11:02:56;8.23;;;3.22;;
64208;SDS011;50527;52.414;13.226;2023-04-15T11:08:06;6.28;;;3.08;;
64208;SDS011;50527;52.414;13.226;2023-04-15T11:15:38;8.32;;;3.55;;
64208;SDS011;50527;52.414;13.226;2023-04-15T11:20:34;7.07;;;3.55;;
64208;SDS011;50527;52.414;13.226;2023-04-15T11:23:01;5.93;;;3.03;;
64208;SDS011;50527;52.414;13.226;2023-04-15T11:25:27;5.40;;;2.95;;
64208;SDS011;50527;52.414;13.226;2023-04-15T11:27:57;8.35;;;3.33;;
64208;SDS011;50527;52.414;13.226;2023-04-15T11:30:24;8.55;;;4.03;;
64208;SDS011;50527;52.414;13.226;2023-04-15T11:32:58;8.63;;;4.13;;
64208;SDS011;50527;52.414;13.226;2023-04-15T11:35:25;6.25;;;3.35;;
64208;SDS011;50527;52.414;13.226;2023-04-15T11:37:52;6.88;;;3.47;;
64208;SDS011;50527;52.414;13.226;2023-04-15T11:40:22;7.22;;;3.42;;
64208;SDS011;50527;52.414;13.226;2023-04-15T11:45:59;6.15;;;2.63;;
64208;SDS011;50527;52.414;13.226;2023-04-15T11:48:26;4.78;;;2.40;;
64208;SDS011;50527;52.414;13.226;2023-04-15T11:50:53;6.65;;;2.85;;
64208;SDS011;50527;52.414;13.226;2023-04-15T11:53:20;5.72;;;3.08;;
64208;SDS011;50527;52.414;13.226;2023-04-15T11:55:48;6.13;;;3.00;;
64208;SDS011;50527;52.414;13.226;2023-04-15T11:58:15;5.25;;;2.85;;
64208;SDS011;50527;52.414;13.226;2023-04-15T12:00:45;5.57;;;2.90;;
64208;SDS011;50527;52.414;13.226;2023-04-15T12:06:03;5.90;;;2.92;;
64208;SDS011;50527;52.414;13.226;2023-04-15T12:11:20;5.40;;;2.67;;
64208;SDS011;50527;52.414;13.226;2023-04-15T12:14:08;4.90;;;2.97;;
64208;SDS011;50527;52.414;13.226;2023-04-15T12:16:41;5.15;;;2.90;;
64208;SDS011;50527;52.414;13.226;2023-04-15T12:19:09;4.20;;;2.40;;
64208;SDS011;50527;52.414;13.226;2023-04-15T12:21:37;5.90;;;2.88;;
64208;SDS011;50527;52.414;13.226;2023-04-15T12:24:05;5.75;;;2.88;;
64208;SDS011;50527;52.414;13.226;2023-04-15T12:26:34;7.85;;;2.80;;
64208;SDS011;50527;52.414;13.226;2023-04-15T12:29:10;4.53;;;2.22;;
64208;SDS011;50527;52.414;13.226;2023-04-15T12:31:43;4.63;;;2.30;;
64208;SDS011;50527;52.414;13.226;2023-04-15T12:34:31;7.72;;;3.08;;
64208;SDS011;50527;52.414;13.226;2023-04-15T12:36:59;4.55;;;2.60;;
64208;SDS011;50527;52.414;13.226;2023-04-15T12:39:26;5.20;;;2.33;;
64208;SDS011;50527;52.414;13.226;2023-04-15T12:41:52;6.28;;;2.58;;
64208;SDS011;50527;52.414;13.226;2023-04-15T12:44:18;4.43;;;2.15;;
64208;SDS011;50527;52.414;13.226;2023-04-15T12:46:46;4.50;;;2.40;;
64208;SDS011;50527;52.414;13.226;2023-04-15T12:49:12;4.38;;;2.20;;
64208;SDS011;50527;52.414;13.226;2023-04-15T12:51:43;8.45;;;2.40;;
64208;SDS011;50527;52.414;13.226;2023-04-15T12:54:09;5.22;;;2.47;;
64208;SDS011;50527;52.414;13.226;2023-04-15T12:56:35;3.95;;;2.10;;
64208;SDS011;50527;52.414;13.226;2023-04-15T12:59:00;5.05;;;2.33;;
64208;SDS011;50527;52.414;13.226;2023-04-15T13:01:26;5.72;;;2.15;;
64208;SDS011;50527;52.414;13.226;2023-04-15T13:03:51;4.70;;;2.15;;
64208;SDS011;50527;52.414;13.226;2023-04-15T13:06:17;7.40;;;2.50;;
64208;SDS011;50527;52.414;13.226;2023-04-15T13:08:42;6.28;;;2.55;;
64208;SDS011;50527;52.414;13.226;2023-04-15T13:11:08;5.20;;;2.45;;
64208;SDS011;50527;52.414;13.226;2023-04-15T13:13:34;4.20;;;2.15;;
64208;SDS011;50527;52.414;13.226;2023-04-15T13:16:00;6.25;;;2.50;;
64208;SDS011;50527;52.414;13.226;2023-04-15T13:18:25;3.70;;;2.22;;
64208;SDS011;50527;52.414;13.226;2023-04-15T13:20:51;5.00;;;2.55;;
64208;SDS011;50527;52.414;13.226;2023-04-15T13:23:18;6.25;;;2.35;;
64208;SDS011;50527;52.414;13.226;2023-04-15T13:25:43;6.78;;;2.30;;
64208;SDS011;50527;52.414;13.226;2023-04-15T13:28:10;3.88;;;2.30;;
64208;SDS011;50527;52.414;13.226;2023-04-15T13:30:36;4.10;;;2.03;;
64208;SDS011;50527;52.414;13.226;2023-04-15T13:33:03;3.95;;;1.98;;
64208;SDS011;50527;52.414;13.226;2023-04-15T13:35:29;4.20;;;2.00;;
64208;SDS011;50527;52.414;13.226;2023-04-15T13:37:56;3.25;;;1.80;;
64208;SDS011;50527;52.414;13.226;2023-04-15T13:40:21;5.85;;;2.30;;
64208;SDS011;50527;52.414;13.226;2023-04-15T13:42:47;2.83;;;1.73;;
64208;SDS011;50527;52.414;13.226;2023-04-15T13:45:12;3.05;;;1.95;;
64208;SDS011;50527;52.414;13.226;2023-04-15T13:47:38;7.18;;;1.95;;
64208;SDS011;50527;52.414;13.226;2023-04-15T13:50:05;4.28;;;1.90;;
64208;SDS011;50527;52.414;13.226;2023-04-15T13:52:30;4.18;;;1.90;;
64208;SDS011;50527;52.414;13.226;2023-04-15T13:54:56;5.38;;;2.47;;
64208;SDS011;50527;52.414;13.226;2023-04-15T13:57:22;5.15;;;2.38;;
64208;SDS011;50527;52.414;13.226;2023-04-15T13:59:47;4.20;;;2.03;;
64208;SDS011;50527;52.414;13.226;2023-04-15T14:02:13;3.97;;;2.03;;
64208;SDS011;50527;52.414;13.226;2023-04-15T14:04:38;4.97;;;2.50;;
64208;SDS011;50527;52.414;13.226;2023-04-15T14:07:04;5.28;;;2.78;;
64208;SDS011;50527;52.414;13.226;2023-04-15T14:09:30;4.78;;;2.20;;
64208;SDS011;50527;52.414;13.226;2023-04-15T14:11:55;5.88;;;2.60;;
64208;SDS011;50527;52.414;13.226;2023-04-15T14:14:21;5.85;;;2.83;;
64208;SDS011;50527;52.414;13.226;2023-04-15T14:16:46;5.88;;;2.63;;
64208;SDS011;50527;52.414;13.226;2023-04-15T14:19:12;4.75;;;2.20;;
64208;SDS011;50527;52.414;13.226;2023-04-15T14:21:38;3.28;;;1.83;;
64208;SDS011;50527;52.414;13.226;2023-04-15T14:24:04;4.47;;;2.20;;
64208;SDS011;50527;52.414;13.226;2023-04-15T14:26:30;4.47;;;2.08;;
64208;SDS011;50527;52.414;13.226;2023-04-15T14:28:55;7.95;;;2.35;;
64208;SDS011;50527;52.414;13.226;2023-04-15T14:31:21;4.88;;;1.98;;
64208;SDS011;50527;52.414;13.226;2023-04-15T14:33:46;5.60;;;2.13;;
64208;SDS011;50527;52.414;13.226;2023-04-15T14:36:12;4.35;;;1.98;;
64208;SDS011;50527;52.414;13.226;2023-04-15T14:38:37;4.80;;;2.30;;
64208;SDS011;50527;52.414;13.226;2023-04-15T14:41:07;4.95;;;2.15;;
64208;SDS011;50527;52.414;13.226;2023-04-15T14:43:33;5.55;;;2.20;;
64208;SDS011;50527;52.414;13.226;2023-04-15T14:45:59;4.65;;;2.25;;
64208;SDS011;50527;52.414;13.226;2023-04-15T14:48:25;4.57;;;2.53;;